createdAt,value
2024-02-14T00:01:16.495Z,19.15
2024-02-14T00:03:44.711Z,19.14
2024-02-14T00:06:14.536Z,19.15
2024-02-14T00:08:42.939Z,19.14
2024-02-14T00:11:12.559Z,19.15
2024-02-14T00:13:40.663Z,19.15
2024-02-14T00:16:09.546Z,19.15
2024-02-14T00:18:38.200Z,19.12
2024-02-14T00:21:06.838Z,19.16
2024-02-14T00:23:35.127Z,19.16
2024-02-14T00:26:03.663Z,19.16
2024-02-14T00:28:33.209Z,19.15
2024-02-14T00:31:01.440Z,19.15
2024-02-14T00:33:29.759Z,19.14
2024-02-14T00:35:58.080Z,19.15
2024-02-14T00:38:26.267Z,19.14
2024-02-14T00:40:55.029Z,19.14
2024-02-14T00:43:23.231Z,19.12
2024-02-14T00:45:52.748Z,19.14
2024-02-14T00:48:20.993Z,19.15
2024-02-14T00:50:49.263Z,19.15
2024-02-14T00:53:17.505Z,19.16
2024-02-14T00:55:45.681Z,19.15
2024-02-14T00:58:13.880Z,19.15
2024-02-14T01:00:42.208Z,19.16
2024-02-14T01:03:14.266Z,19.15
2024-02-14T01:05:43.967Z,19.15
2024-02-14T01:08:12.525Z,19.16
2024-02-14T01:10:40.694Z,19.15
2024-02-14T01:13:08.932Z,18.95
2024-02-14T01:15:37.171Z,19.15
2024-02-14T01:18:05.635Z,19.14
2024-02-14T01:20:35.471Z,19.15
2024-02-14T01:23:03.680Z,19.15
2024-02-14T01:25:31.825Z,19.16
2024-02-14T01:28:00.129Z,19.16
2024-02-14T01:30:28.375Z,19.15
2024-02-14T01:32:56.920Z,19.16
2024-02-14T01:35:25.388Z,19.16
2024-02-14T01:37:55.765Z,19.16
2024-02-14T01:40:24.039Z,19.16
2024-02-14T01:42:53.757Z,19.16
2024-02-14T01:45:22.034Z,19.16
2024-02-14T01:47:51.378Z,19.15
2024-02-14T01:50:26.744Z,19.14
2024-02-14T01:52:56.350Z,19.17
2024-02-14T01:55:24.728Z,19.13
2024-02-14T01:57:53.097Z,19.15
2024-02-14T02:00:21.831Z,19.17
2024-02-14T02:02:50.624Z,19.15
2024-02-14T02:05:20.026Z,19.16
2024-02-14T02:07:49.919Z,19.16
2024-02-14T02:10:19.753Z,19.15
2024-02-14T02:12:47.954Z,19.15
2024-02-14T02:15:16.291Z,19.16
2024-02-14T02:17:47.119Z,19.15
2024-02-14T02:20:16.934Z,19.14
2024-02-14T02:22:48.414Z,19.16
2024-02-14T02:25:16.800Z,19.16
2024-02-14T02:27:44.924Z,19.16
2024-02-14T02:30:15.129Z,19.16
2024-02-14T02:32:44.651Z,19.16
2024-02-14T02:35:12.892Z,19.15
2024-02-14T02:37:41.068Z,19.15
2024-02-14T02:40:12.260Z,19.15
2024-02-14T02:42:40.443Z,19.14
2024-02-14T02:45:09.937Z,19.14
2024-02-14T02:47:38.243Z,19.14
2024-02-14T02:50:07.175Z,19.11
2024-02-14T02:52:35.324Z,19.10
2024-02-14T02:55:03.601Z,19.14
2024-02-14T02:57:34.870Z,19.14
2024-02-14T03:00:03.137Z,19.14
2024-02-14T03:02:31.434Z,19.14
2024-02-14T03:05:00.482Z,19.14
2024-02-14T03:07:28.729Z,19.15
2024-02-14T03:09:56.900Z,19.14
2024-02-14T03:12:25.273Z,19.15
2024-02-14T03:14:54.900Z,19.14
2024-02-14T03:17:23.160Z,19.14
2024-02-14T03:19:53.256Z,19.14
2024-02-14T03:22:21.807Z,19.14
2024-02-14T03:24:50.419Z,19.14
2024-02-14T03:27:20.192Z,19.11
2024-02-14T03:29:49.034Z,19.14
2024-02-14T03:32:18.974Z,19.12
2024-02-14T03:34:47.255Z,19.15
2024-02-14T03:37:15.921Z,19.15
2024-02-14T03:39:44.075Z,19.14
2024-02-14T03:42:12.261Z,19.14
2024-02-14T03:44:40.511Z,19.14
2024-02-14T03:47:08.724Z,19.14
2024-02-14T03:49:38.322Z,19.14
2024-02-14T03:52:11.179Z,19.13
2024-02-14T03:54:39.590Z,19.13
2024-02-14T03:57:09.883Z,19.07
2024-02-14T03:59:40.446Z,19.14
2024-02-14T04:02:11.505Z,19.13
2024-02-14T04:04:43.650Z,19.00
2024-02-14T04:07:11.919Z,19.14
2024-02-14T04:09:40.211Z,19.15
2024-02-14T04:12:09.859Z,19.14
2024-02-14T04:14:38.161Z,19.13
2024-02-14T04:17:08.895Z,19.14
2024-02-14T04:19:37.250Z,19.15
2024-02-14T04:22:07.145Z,19.14
2024-02-14T04:24:36.161Z,19.15
2024-02-14T04:27:05.841Z,19.15
2024-02-14T04:29:35.311Z,19.06
2024-02-14T04:32:04.010Z,19.13
2024-02-14T04:34:32.579Z,19.13
2024-02-14T04:37:00.902Z,19.14
2024-02-14T04:39:30.526Z,19.13
2024-02-14T04:42:02.378Z,19.13
2024-02-14T04:44:31.346Z,19.13
2024-02-14T04:47:00.711Z,19.14
2024-02-14T04:49:30.510Z,19.13
2024-02-14T04:51:59.965Z,18.96
2024-02-14T04:54:29.148Z,19.13
2024-02-14T04:57:01.816Z,19.13
2024-02-14T04:59:31.477Z,19.13
2024-02-14T05:02:00.234Z,19.14
2024-02-14T05:04:29.028Z,19.17
2024-02-14T05:06:59.371Z,19.21
2024-02-14T05:09:28.133Z,19.22
2024-02-14T05:11:56.298Z,19.24
2024-02-14T05:14:26.732Z,19.24
2024-02-14T05:16:56.242Z,19.24
2024-02-14T05:19:25.127Z,19.23
2024-02-14T05:21:53.619Z,19.22
2024-02-14T05:24:21.829Z,19.20
2024-02-14T05:26:50.385Z,19.20
2024-02-14T05:29:20.039Z,19.20
2024-02-14T05:31:50.465Z,19.07
2024-02-14T05:34:19.030Z,19.17
2024-02-14T05:36:50.535Z,19.17
2024-02-14T05:39:18.711Z,19.17
2024-02-14T05:41:46.842Z,19.16
2024-02-14T05:44:15.015Z,19.15
2024-02-14T05:46:43.708Z,19.16
2024-02-14T05:49:13.470Z,19.16
2024-02-14T05:51:42.231Z,19.16
2024-02-14T05:54:10.417Z,19.16
2024-02-14T05:56:38.630Z,19.17
2024-02-14T05:59:06.813Z,19.16
2024-02-14T06:01:34.975Z,19.15
2024-02-14T06:04:03.169Z,19.16
2024-02-14T06:06:32.812Z,19.15
2024-02-14T06:09:01.170Z,19.14
2024-02-14T06:11:29.403Z,19.14
2024-02-14T06:13:57.552Z,19.16
2024-02-14T06:16:26.548Z,19.16
2024-02-14T06:18:55.095Z,19.16
2024-02-14T06:21:23.564Z,19.14
2024-02-14T06:23:53.292Z,19.17
2024-02-14T06:26:21.542Z,19.17
2024-02-14T06:28:55.362Z,19.18
2024-02-14T06:31:25.059Z,19.17
2024-02-14T06:33:53.488Z,19.16
2024-02-14T06:36:21.813Z,19.16
2024-02-14T06:38:51.533Z,19.16
2024-02-14T06:41:21.836Z,19.17
2024-02-14T06:43:51.120Z,19.15
2024-02-14T06:46:19.288Z,19.15
2024-02-14T06:48:47.606Z,19.14
2024-02-14T06:51:15.844Z,19.15
2024-02-14T06:53:44.068Z,19.16
2024-02-14T06:56:12.292Z,19.16
2024-02-14T06:58:41.928Z,19.16
2024-02-14T07:01:13.013Z,19.08
2024-02-14T07:03:42.012Z,19.16
2024-02-14T07:06:10.283Z,19.16
2024-02-14T07:08:39.171Z,19.17
2024-02-14T07:11:07.351Z,19.14
2024-02-14T07:13:35.798Z,19.17
2024-02-14T07:16:08.347Z,19.17
2024-02-14T07:18:38.460Z,19.15
2024-02-14T07:21:07.491Z,19.15
2024-02-14T07:23:36.155Z,19.15
2024-02-14T07:26:04.446Z,19.15
2024-02-14T07:28:33.465Z,19.16
2024-02-14T07:31:01.679Z,19.15
2024-02-14T07:33:31.349Z,19.16
2024-02-14T07:35:59.867Z,19.16
2024-02-14T07:38:28.128Z,19.16
2024-02-14T07:40:56.376Z,19.15
2024-02-14T07:43:24.573Z,19.13
2024-02-14T07:45:53.936Z,19.16
2024-02-14T07:48:23.707Z,19.14
2024-02-14T07:50:53.585Z,19.15
2024-02-14T07:53:21.850Z,19.15
2024-02-14T07:55:50.795Z,19.15
2024-02-14T07:58:18.977Z,19.15
2024-02-14T08:00:47.216Z,19.16
2024-02-14T08:03:15.597Z,19.16
2024-02-14T08:05:43.965Z,19.15
2024-02-14T08:08:13.627Z,19.15
2024-02-14T08:10:41.791Z,19.15
2024-02-14T08:13:09.963Z,19.16
2024-02-14T08:15:39.277Z,19.15
2024-02-14T08:18:10.395Z,19.15
2024-02-14T08:20:39.100Z,19.16
2024-02-14T08:23:07.375Z,19.15
2024-02-14T08:25:36.938Z,19.15
2024-02-14T08:28:05.386Z,19.15
2024-02-14T08:30:33.623Z,19.15
2024-02-14T08:33:02.097Z,19.16
2024-02-14T08:35:31.460Z,19.15
2024-02-14T08:37:59.674Z,19.15
2024-02-14T08:40:28.181Z,19.15
2024-02-14T08:42:57.870Z,19.16
2024-02-14T08:45:26.626Z,19.13
2024-02-14T08:47:54.940Z,19.15
2024-02-14T08:50:23.249Z,19.11
2024-02-14T08:52:51.396Z,19.14
2024-02-14T08:55:20.040Z,19.14
2024-02-14T08:57:49.723Z,19.15
2024-02-14T09:00:21.420Z,19.15
2024-02-14T09:02:50.358Z,19.15
2024-02-14T09:05:20.164Z,19.16
2024-02-14T09:07:48.467Z,19.11
2024-02-14T09:10:16.938Z,19.14
2024-02-14T09:12:45.467Z,19.16
2024-02-14T09:15:14.222Z,19.17
2024-02-14T09:17:44.493Z,19.16
2024-02-14T09:20:15.909Z,19.17
2024-02-14T09:22:44.404Z,19.16
2024-02-14T09:25:12.617Z,19.16
2024-02-14T09:27:41.092Z,19.15
2024-02-14T09:30:18.423Z,19.15
2024-02-14T09:32:54.430Z,19.14
2024-02-14T09:35:22.856Z,19.15
2024-02-14T09:37:50.995Z,19.14
2024-02-14T09:40:19.238Z,19.14
2024-02-14T09:42:54.395Z,19.14
2024-02-14T09:45:25.909Z,19.14
2024-02-14T09:47:56.699Z,19.15
2024-02-14T09:50:26.829Z,19.14
2024-02-14T09:52:56.127Z,19.15
2024-02-14T09:55:27.362Z,19.07
2024-02-14T09:57:56.841Z,19.14
2024-02-14T10:00:25.386Z,19.15
2024-02-14T10:02:53.981Z,19.15
2024-02-14T10:05:23.556Z,19.15
2024-02-14T10:07:51.698Z,19.14
2024-02-14T10:10:19.861Z,19.14
2024-02-14T10:12:47.999Z,19.14
2024-02-14T10:15:16.318Z,19.15
2024-02-14T10:17:45.534Z,19.15
2024-02-14T10:20:19.023Z,19.13
2024-02-14T10:22:49.517Z,19.15
2024-02-14T10:25:20.043Z,19.13
2024-02-14T10:27:48.846Z,19.15
2024-02-14T10:30:17.595Z,19.15
2024-02-14T10:32:49.262Z,19.15
2024-02-14T10:35:18.461Z,18.92
2024-02-14T10:37:50.070Z,19.14
2024-02-14T10:40:19.834Z,19.12
2024-02-14T10:42:48.320Z,19.14
2024-02-14T10:45:17.159Z,19.14
2024-02-14T10:47:50.321Z,19.15
2024-02-14T10:50:19.295Z,19.14
2024-02-14T10:52:50.697Z,19.15
2024-02-14T10:55:19.991Z,19.15
2024-02-14T10:57:48.973Z,19.15
2024-02-14T11:00:19.514Z,19.15
2024-02-14T11:02:48.770Z,19.15
2024-02-14T11:05:17.347Z,19.15
2024-02-14T11:07:53.444Z,19.13
2024-02-14T11:10:24.098Z,19.14
2024-02-14T11:12:53.120Z,19.14
2024-02-14T11:15:24.631Z,19.13
2024-02-14T11:17:53.738Z,19.14
2024-02-14T11:20:23.947Z,19.15
2024-02-14T11:23:04.670Z,19.14
2024-02-14T11:25:33.667Z,19.14
2024-02-14T11:28:03.434Z,19.15
2024-02-14T11:30:33.029Z,19.15
2024-02-14T11:33:19.398Z,19.14
2024-02-14T11:35:51.218Z,19.13
2024-02-14T11:38:21.128Z,19.14
2024-02-14T11:40:50.921Z,19.14
2024-02-14T11:43:21.451Z,19.13
2024-02-14T11:45:50.980Z,19.13
2024-02-14T11:48:20.714Z,19.13
2024-02-14T11:50:49.836Z,19.14
2024-02-14T11:53:20.286Z,19.12
2024-02-14T11:55:50.206Z,19.13
2024-02-14T11:58:20.060Z,19.15
2024-02-14T12:00:50.094Z,19.15
2024-02-14T12:03:20.583Z,19.15
2024-02-14T12:05:50.634Z,19.15
2024-02-14T12:08:19.558Z,19.15
2024-02-14T12:10:51.349Z,19.13
2024-02-14T12:13:22.057Z,19.15
2024-02-14T12:15:51.840Z,19.15
2024-02-14T12:18:22.795Z,19.14
2024-02-14T12:20:55.898Z,19.05
2024-02-14T12:23:27.664Z,19.13
2024-02-14T12:26:04.821Z,19.13
2024-02-14T12:28:35.142Z,19.13
2024-02-14T12:31:03.318Z,19.14
2024-02-14T12:33:33.838Z,19.16
2024-02-14T12:36:02.288Z,19.15
2024-02-14T12:38:31.284Z,19.15
2024-02-14T12:41:02.837Z,19.16
2024-02-14T12:43:30.965Z,19.14
2024-02-14T12:45:59.796Z,19.15
2024-02-14T12:48:29.468Z,19.15
2024-02-14T12:50:59.311Z,19.16
2024-02-14T12:53:28.130Z,19.14
2024-02-14T12:55:56.605Z,19.15
2024-02-14T12:58:26.614Z,19.14
2024-02-14T13:00:54.999Z,19.15
2024-02-14T13:03:23.516Z,19.14
2024-02-14T13:05:52.184Z,19.14
2024-02-14T13:08:20.354Z,19.14
2024-02-14T13:10:48.827Z,19.09
2024-02-14T13:13:17.070Z,19.15
2024-02-14T13:15:46.591Z,19.15
2024-02-14T13:18:15.129Z,19.16
2024-02-14T13:20:45.624Z,19.16
2024-02-14T13:23:15.783Z,19.15
2024-02-14T13:25:44.289Z,19.16
2024-02-14T13:28:12.501Z,19.16
2024-02-14T13:30:40.714Z,19.16
2024-02-14T13:33:12.840Z,19.16
2024-02-14T13:35:41.337Z,19.16
2024-02-14T13:38:10.867Z,19.16
2024-02-14T13:40:39.175Z,19.15
2024-02-14T13:43:07.697Z,19.17
2024-02-14T13:45:43.714Z,19.16
2024-02-14T13:48:13.840Z,19.16
2024-02-14T13:50:42.949Z,19.16
2024-02-14T13:53:11.376Z,19.16
2024-02-14T13:55:40.371Z,19.16
2024-02-14T13:58:15.230Z,19.17
2024-02-14T14:00:44.023Z,19.16
2024-02-14T14:03:14.041Z,19.15
2024-02-14T14:05:42.723Z,19.14
2024-02-14T14:08:11.025Z,19.16
2024-02-14T14:10:39.238Z,19.15
2024-02-14T14:13:07.436Z,19.13
2024-02-14T14:15:35.664Z,19.16
2024-02-14T14:18:04.025Z,19.17
2024-02-14T14:20:34.030Z,19.16
2024-02-14T14:23:04.781Z,19.16
2024-02-14T14:25:33.641Z,19.15
2024-02-14T14:28:04.039Z,19.15
2024-02-14T14:30:33.409Z,19.13
2024-02-14T14:33:02.241Z,19.14
2024-02-14T14:35:32.857Z,19.15
2024-02-14T14:38:03.988Z,19.16
2024-02-14T14:40:32.278Z,19.15
2024-02-14T14:43:00.461Z,19.15
2024-02-14T14:45:29.620Z,19.16
2024-02-14T14:47:58.979Z,19.17
2024-02-14T14:50:27.568Z,19.17
2024-02-14T14:52:55.817Z,19.17
2024-02-14T14:55:26.505Z,18.94
2024-02-14T14:57:57.757Z,19.15
2024-02-14T15:00:26.190Z,19.16
2024-02-14T15:02:56.048Z,19.12
2024-02-14T15:05:24.277Z,19.16
2024-02-14T15:07:52.633Z,19.16
2024-02-14T15:10:20.876Z,19.15
2024-02-14T15:12:50.465Z,19.13
2024-02-14T15:15:20.538Z,19.13
2024-02-14T15:17:48.929Z,19.14
2024-02-14T15:20:17.342Z,19.16
2024-02-14T15:22:45.513Z,19.13
2024-02-14T15:25:13.752Z,19.16
2024-02-14T15:27:45.400Z,19.16
2024-02-14T15:30:32.775Z,19.15
2024-02-14T15:33:18.625Z,19.14
2024-02-14T15:35:47.104Z,19.13
2024-02-14T15:38:17.245Z,19.14
2024-02-14T15:40:45.394Z,19.15
2024-02-14T15:43:13.816Z,19.14
2024-02-14T15:45:43.569Z,19.14
2024-02-14T15:48:11.935Z,19.14
2024-02-14T15:50:40.192Z,19.14
2024-02-14T15:53:08.480Z,19.15
2024-02-14T15:55:37.230Z,19.15
2024-02-14T15:58:05.805Z,19.15
2024-02-14T16:00:34.245Z,19.16
2024-02-14T16:03:04.653Z,19.16
2024-02-14T16:05:33.120Z,19.16
2024-02-14T16:08:02.356Z,19.16
2024-02-14T16:10:30.530Z,19.16
2024-02-14T16:12:59.341Z,19.15
2024-02-14T16:15:30.211Z,19.16
2024-02-14T16:17:58.583Z,19.16
2024-02-14T16:20:28.358Z,19.14
2024-02-14T16:22:56.536Z,19.15
2024-02-14T16:25:26.911Z,19.16
2024-02-14T16:27:56.009Z,19.15
2024-02-14T16:30:24.237Z,19.16
2024-02-14T16:32:52.613Z,19.09
2024-02-14T16:35:22.057Z,19.17
2024-02-14T16:37:51.641Z,19.16
2024-02-14T16:40:19.854Z,19.12
2024-02-14T16:42:48.099Z,19.14
2024-02-14T16:45:19.239Z,19.14
2024-02-14T16:47:48.099Z,19.14
2024-02-14T16:50:16.432Z,19.13
2024-02-14T16:52:44.593Z,19.13
2024-02-14T16:55:14.565Z,19.14
2024-02-14T16:57:42.737Z,19.14
2024-02-14T17:00:11.952Z,19.14
2024-02-14T17:02:40.859Z,19.14
2024-02-14T17:05:10.305Z,19.15
2024-02-14T17:07:38.735Z,19.15
2024-02-14T17:10:07.501Z,19.15
2024-02-14T17:12:37.506Z,19.15
2024-02-14T17:15:07.046Z,19.16
2024-02-14T17:17:35.522Z,19.14
2024-02-14T17:20:04.504Z,19.17
2024-02-14T17:22:33.207Z,19.17
2024-02-14T17:25:02.587Z,19.13
2024-02-14T17:27:30.756Z,19.16
2024-02-14T17:30:00.817Z,19.17
2024-02-14T17:32:36.465Z,19.16
2024-02-14T17:35:10.257Z,19.16
2024-02-14T17:37:39.643Z,19.16
2024-02-14T17:40:09.776Z,19.16
2024-02-14T17:42:38.267Z,19.15
2024-02-14T17:45:10.210Z,19.15
2024-02-14T17:47:39.277Z,19.15
2024-02-14T17:50:08.902Z,19.15
2024-02-14T17:52:38.905Z,19.15
2024-02-14T17:55:07.772Z,19.14
2024-02-14T17:57:37.023Z,19.14
2024-02-14T18:00:07.299Z,19.12
2024-02-14T18:02:37.796Z,19.14
2024-02-14T18:05:06.991Z,19.15
2024-02-14T18:07:35.152Z,19.15
2024-02-14T18:10:03.432Z,19.16
2024-02-14T18:12:31.716Z,19.17
2024-02-14T18:14:59.895Z,19.17
2024-02-14T18:17:28.094Z,19.19
2024-02-14T18:19:57.827Z,19.21
2024-02-14T18:22:26.146Z,19.24
2024-02-14T18:24:54.541Z,19.25
2024-02-14T18:27:26.254Z,19.27
2024-02-14T18:29:54.493Z,19.28
2024-02-14T18:32:22.626Z,19.29
2024-02-14T18:34:50.901Z,19.29
2024-02-14T18:37:20.455Z,19.28
2024-02-14T18:39:48.636Z,19.31
2024-02-14T18:42:17.412Z,19.28
2024-02-14T18:44:45.662Z,19.32
2024-02-14T18:47:13.871Z,19.30
2024-02-14T18:49:45.834Z,19.28
2024-02-14T18:52:14.299Z,19.27
2024-02-14T18:54:43.983Z,19.24
2024-02-14T18:57:12.353Z,19.23
2024-02-14T18:59:43.252Z,19.24
2024-02-14T19:02:11.471Z,19.22
2024-02-14T19:04:39.729Z,19.21
2024-02-14T19:07:09.261Z,19.19
2024-02-14T19:09:37.780Z,19.19
2024-02-14T19:12:08.489Z,19.19
2024-02-14T19:14:38.988Z,19.19
2024-02-14T19:17:07.482Z,19.19
2024-02-14T19:19:37.106Z,19.22
2024-02-14T19:22:07.663Z,19.21
2024-02-14T19:24:35.902Z,19.21
2024-02-14T19:27:04.252Z,19.21
2024-02-14T19:29:33.914Z,19.21
2024-02-14T19:32:02.259Z,19.22
2024-02-14T19:34:30.608Z,19.24
2024-02-14T19:36:58.878Z,19.24
2024-02-14T19:39:27.032Z,19.24
2024-02-14T19:41:55.320Z,19.24
2024-02-14T19:44:23.607Z,19.23
2024-02-14T19:46:53.158Z,19.24
2024-02-14T19:49:24.420Z,19.23
2024-02-14T19:51:53.867Z,19.23
2024-02-14T19:54:22.141Z,19.23
2024-02-14T19:56:50.784Z,19.24
2024-02-14T19:59:19.255Z,19.23
2024-02-14T20:01:47.561Z,19.22
2024-02-14T20:04:18.073Z,19.21
2024-02-14T20:06:47.044Z,19.21
2024-02-14T20:09:15.523Z,19.22
2024-02-14T20:11:46.161Z,19.21
2024-02-14T20:14:14.396Z,19.21
2024-02-14T20:16:42.837Z,19.22
2024-02-14T20:19:11.519Z,19.22
2024-02-14T20:21:43.729Z,19.19
2024-02-14T20:24:12.025Z,19.22
2024-02-14T20:26:40.395Z,19.22
2024-02-14T20:29:08.755Z,19.22
2024-02-14T20:31:37.226Z,19.22
2024-02-14T20:34:06.514Z,19.22
2024-02-14T20:36:37.791Z,19.17
2024-02-14T20:39:09.208Z,19.20
2024-02-14T20:41:37.895Z,19.25
2024-02-14T20:44:06.744Z,19.28
2024-02-14T20:46:35.152Z,19.29
2024-02-14T20:49:04.194Z,19.33
2024-02-14T20:51:35.999Z,19.34
2024-02-14T20:54:05.066Z,19.35
2024-02-14T20:56:34.821Z,19.37
2024-02-14T20:59:10.865Z,19.38
2024-02-14T21:01:44.580Z,19.38
2024-02-14T21:04:12.998Z,19.39
2024-02-14T21:06:41.745Z,19.41
2024-02-14T21:09:11.274Z,19.42
2024-02-14T21:11:41.819Z,19.40
2024-02-14T21:14:10.121Z,19.44
2024-02-14T21:16:38.348Z,19.41
2024-02-14T21:19:06.852Z,19.39
2024-02-14T21:21:36.941Z,19.37
2024-02-14T21:24:05.680Z,19.36
2024-02-14T21:26:34.727Z,19.31
2024-02-14T21:29:04.431Z,19.32
2024-02-14T21:31:33.574Z,19.33
2024-02-14T21:34:01.993Z,19.32
2024-02-14T21:36:30.389Z,19.31
2024-02-14T21:38:58.572Z,19.31
2024-02-14T21:41:27.601Z,19.30
2024-02-14T21:43:55.835Z,19.29
2024-02-14T21:46:26.662Z,19.29
2024-02-14T21:48:55.259Z,19.29
2024-02-14T21:51:23.559Z,19.27
2024-02-14T21:53:52.489Z,19.27
2024-02-14T21:56:20.974Z,19.26
2024-02-14T21:58:49.276Z,19.25
2024-02-14T22:01:17.772Z,19.26
2024-02-14T22:03:47.361Z,19.25
2024-02-14T22:06:15.586Z,19.27
2024-02-14T22:08:44.143Z,19.26
2024-02-14T22:11:13.850Z,19.23
2024-02-14T22:13:42.210Z,19.27
2024-02-14T22:16:12.111Z,19.24
2024-02-14T22:18:41.331Z,19.27
2024-02-14T22:21:12.181Z,19.23
2024-02-14T22:23:40.478Z,19.25
2024-02-14T22:26:08.737Z,19.25
2024-02-14T22:28:36.983Z,19.23
2024-02-14T22:31:05.301Z,19.23
2024-02-14T22:33:34.098Z,19.23
2024-02-14T22:36:03.542Z,19.17
2024-02-14T22:38:33.371Z,19.25
2024-02-14T22:41:02.117Z,19.24
2024-02-14T22:43:30.653Z,19.24
2024-02-14T22:45:58.839Z,19.16
2024-02-14T22:48:27.849Z,19.23
2024-02-14T22:50:56.091Z,19.22
2024-02-14T22:53:24.330Z,19.23
2024-02-14T22:55:53.868Z,19.23
2024-02-14T22:58:22.056Z,19.23
2024-02-14T23:00:50.617Z,19.21
2024-02-14T23:03:18.885Z,19.22
2024-02-14T23:05:48.345Z,19.18
2024-02-14T23:08:17.683Z,19.23
2024-02-14T23:10:45.854Z,19.22
2024-02-14T23:13:16.569Z,19.22
2024-02-14T23:15:44.830Z,19.21
2024-02-14T23:18:13.169Z,19.22
2024-02-14T23:20:41.529Z,19.22
2024-02-14T23:23:09.723Z,19.23
2024-02-14T23:25:38.711Z,19.22
2024-02-14T23:28:07.264Z,19.22
2024-02-14T23:30:40.907Z,19.22
2024-02-14T23:33:12.293Z,19.22
2024-02-14T23:35:40.880Z,19.20
2024-02-14T23:38:12.704Z,19.22
2024-02-14T23:40:41.118Z,19.17
2024-02-14T23:43:10.973Z,19.22
2024-02-14T23:45:41.689Z,19.22
2024-02-14T23:48:11.953Z,19.22
2024-02-14T23:50:40.704Z,19.22
2024-02-14T23:53:09.770Z,19.21
2024-02-14T23:55:38.061Z,19.21
2024-02-14T23:58:06.253Z,19.21
